sensor_id;sensor_type;location;lat;lon;timestamp;pressure;altitude;pressure_sealevel;temperature;humidity
59110;BME280;44895;47.438;18.978;2023-01-06T00:01:42;100435.50;;;7.74;100.00
59110;BME280;44895;47.438;18.978;2023-01-06T00:04:46;100452.78;;;7.73;100.00
59110;BME280;44895;47.438;18.978;2023-01-06T00:07:50;100456.56;;;7.67;100.00
59110;BME280;44895;47.438;18.978;2023-01-06T00:10:54;100441.44;;;7.76;100.00
59110;BME280;44895;47.438;18.978;2023-01-06T00:13:58;100456.59;;;7.82;100.00
59110;BME280;44895;47.438;18.978;2023-01-06T00:17:02;100459.03;;;7.84;100.00
59110;BME280;44895;47.438;18.978;2023-01-06T00:20:07;100469.59;;;7.80;100.00
59110;BME280;44895;47.438;18.978;2023-01-06T00:23:11;100465.81;;;7.87;100.00
59110;BME280;44895;47.438;18.978;2023-01-06T00:26:14;100477.16;;;7.78;100.00
59110;BME280;44895;47.438;18.978;2023-01-06T00:29:18;100472.81;;;7.82;100.00
59110;BME280;44895;47.438;18.978;2023-01-06T00:32:21;100478.78;;;7.79;100.00
59110;BME280;44895;47.438;18.978;2023-01-06T00:35:25;100480.44;;;7.96;100.00
59110;BME280;44895;47.438;18.978;2023-01-06T00:38:29;100490.69;;;7.89;100.00
59110;BME280;44895;47.438;18.978;2023-01-06T00:41:33;100496.94;;;7.94;100.00
59110;BME280;44895;47.438;18.978;2023-01-06T00:44:55;100506.16;;;7.98;100.00
59110;BME280;44895;47.438;18.978;2023-01-06T00:47:59;100506.72;;;8.00;100.00
59110;BME280;44895;47.438;18.978;2023-01-06T00:51:03;100505.88;;;7.95;100.00
59110;BME280;44895;47.438;18.978;2023-01-06T00:54:10;100507.19;;;7.87;100.00
59110;BME280;44895;47.438;18.978;2023-01-06T00:57:14;100507.44;;;7.80;100.00
59110;BME280;44895;47.438;18.978;2023-01-06T01:00:18;100510.16;;;7.80;100.00
59110;BME280;44895;47.438;18.978;2023-01-06T01:03:23;100516.66;;;7.90;100.00
59110;BME280;44895;47.438;18.978;2023-01-06T01:06:27;100527.72;;;7.78;100.00
59110;BME280;44895;47.438;18.978;2023-01-06T01:09:31;100519.63;;;7.83;100.00
59110;BME280;44895;47.438;18.978;2023-01-06T01:12:35;100515.28;;;7.82;100.00
59110;BME280;44895;47.438;18.978;2023-01-06T01:15:38;100534.25;;;7.87;100.00
59110;BME280;44895;47.438;18.978;2023-01-06T01:18:43;100535.53;;;7.74;100.00
59110;BME280;44895;47.438;18.978;2023-01-06T01:21:47;100539.28;;;7.68;100.00
59110;BME280;44895;47.438;18.978;2023-01-06T01:24:51;100545.78;;;7.72;100.00
59110;BME280;44895;47.438;18.978;2023-01-06T01:27:54;100553.34;;;7.70;100.00
59110;BME280;44895;47.438;18.978;2023-01-06T01:31:01;100544.47;;;7.80;100.00
59110;BME280;44895;47.438;18.978;2023-01-06T01:34:06;100555.53;;;7.73;100.00
59110;BME280;44895;47.438;18.978;2023-01-06T01:37:10;100548.78;;;7.71;100.00
59110;BME280;44895;47.438;18.978;2023-01-06T01:40:14;100561.97;;;7.62;100.00
59110;BME280;44895;47.438;18.978;2023-01-06T01:43:18;100564.69;;;7.67;100.00
59110;BME280;44895;47.438;18.978;2023-01-06T01:49:34;100567.69;;;7.71;100.00
59110;BME280;44895;47.438;18.978;2023-01-06T01:52:41;100575.47;;;7.57;100.00
59110;BME280;44895;47.438;18.978;2023-01-06T01:55:48;100563.00;;;7.56;100.00
59110;BME280;44895;47.438;18.978;2023-01-06T01:58:58;100581.78;;;7.73;100.00
59110;BME280;44895;47.438;18.978;2023-01-06T02:02:03;100574.91;;;7.60;100.00
59110;BME280;44895;47.438;18.978;2023-01-06T02:05:07;100589.53;;;7.59;100.00
59110;BME280;44895;47.438;18.978;2023-01-06T02:11:50;100584.41;;;7.62;100.00
59110;BME280;44895;47.438;18.978;2023-01-06T02:14:54;100587.69;;;7.70;100.00
59110;BME280;44895;47.438;18.978;2023-01-06T02:21:45;100583.81;;;7.50;100.00
59110;BME280;44895;47.438;18.978;2023-01-06T02:42:24;100600.66;;;7.67;100.00
59110;BME280;44895;47.438;18.978;2023-01-06T02:52:11;100607.03;;;7.51;100.00
59110;BME280;44895;47.438;18.978;2023-01-06T02:55:31;100607.56;;;7.48;100.00
59110;BME280;44895;47.438;18.978;2023-01-06T03:01:57;100621.31;;;7.41;100.00
59110;BME280;44895;47.438;18.978;2023-01-06T03:05:04;100624.13;;;7.57;100.00
59110;BME280;44895;47.438;18.978;2023-01-06T03:08:13;100623.81;;;7.53;100.00
59110;BME280;44895;47.438;18.978;2023-01-06T03:11:19;100615.34;;;7.39;100.00
59110;BME280;44895;47.438;18.978;2023-01-06T03:14:29;100613.97;;;7.37;100.00
59110;BME280;44895;47.438;18.978;2023-01-06T03:17:34;100603.41;;;7.30;100.00
59110;BME280;44895;47.438;18.978;2023-01-06T03:20:39;100612.22;;;7.20;100.00
59110;BME280;44895;47.438;18.978;2023-01-06T03:23:44;100608.19;;;7.23;100.00
59110;BME280;44895;47.438;18.978;2023-01-06T03:26:48;100610.28;;;7.15;100.00
59110;BME280;44895;47.438;18.978;2023-01-06T03:29:55;100613.00;;;7.15;100.00
59110;BME280;44895;47.438;18.978;2023-01-06T03:33:10;100622.69;;;7.11;100.00
59110;BME280;44895;47.438;18.978;2023-01-06T03:36:35;100620.97;;;7.00;100.00
59110;BME280;44895;47.438;18.978;2023-01-06T03:42:54;100624.03;;;7.09;100.00
59110;BME280;44895;47.438;18.978;2023-01-06T03:46:30;100624.53;;;7.06;100.00
59110;BME280;44895;47.438;18.978;2023-01-06T03:50:05;100635.81;;;6.97;100.00
59110;BME280;44895;47.438;18.978;2023-01-06T03:56:28;100633.38;;;6.96;100.00
59110;BME280;44895;47.438;18.978;2023-01-06T03:59:42;100640.03;;;6.88;100.00
59110;BME280;44895;47.438;18.978;2023-01-06T04:02:50;100643.66;;;6.72;100.00
59110;BME280;44895;47.438;18.978;2023-01-06T04:05:58;100643.88;;;6.70;100.00
59110;BME280;44895;47.438;18.978;2023-01-06T04:09:02;100648.53;;;6.75;100.00
59110;BME280;44895;47.438;18.978;2023-01-06T04:12:07;100649.75;;;6.62;100.00
59110;BME280;44895;47.438;18.978;2023-01-06T04:15:30;100638.97;;;6.62;100.00
59110;BME280;44895;47.438;18.978;2023-01-06T04:18:36;100645.94;;;6.58;100.00
59110;BME280;44895;47.438;18.978;2023-01-06T04:21:40;100641.19;;;6.70;100.00
59110;BME280;44895;47.438;18.978;2023-01-06T04:24:44;100644.16;;;6.68;100.00
59110;BME280;44895;47.438;18.978;2023-01-06T04:27:49;100641.66;;;6.62;100.00
59110;BME280;44895;47.438;18.978;2023-01-06T04:30:58;100643.28;;;6.63;100.00
59110;BME280;44895;47.438;18.978;2023-01-06T04:34:02;100643.88;;;6.70;100.00
59110;BME280;44895;47.438;18.978;2023-01-06T04:37:06;100638.50;;;6.70;100.00
59110;BME280;44895;47.438;18.978;2023-01-06T04:40:10;100648.22;;;6.71;100.00
59110;BME280;44895;47.438;18.978;2023-01-06T04:43:14;100654.81;;;6.80;100.00
59110;BME280;44895;47.438;18.978;2023-01-06T04:46:21;100659.59;;;6.73;100.00
59110;BME280;44895;47.438;18.978;2023-01-06T04:49:24;100667.69;;;6.73;100.00
59110;BME280;44895;47.438;18.978;2023-01-06T04:52:28;100674.47;;;6.76;100.00
59110;BME280;44895;47.438;18.978;2023-01-06T04:55:32;100671.19;;;6.74;100.00
59110;BME280;44895;47.438;18.978;2023-01-06T04:58:40;100681.03;;;6.85;100.00
59110;BME280;44895;47.438;18.978;2023-01-06T05:01:43;100681.25;;;6.78;100.00
59110;BME280;44895;47.438;18.978;2023-01-06T05:04:47;100690.78;;;6.86;100.00
59110;BME280;44895;47.438;18.978;2023-01-06T05:07:54;100701.56;;;6.86;100.00
59110;BME280;44895;47.438;18.978;2023-01-06T05:11:16;100700.81;;;6.91;100.00
59110;BME280;44895;47.438;18.978;2023-01-06T05:14:20;100705.22;;;6.97;100.00
59110;BME280;44895;47.438;18.978;2023-01-06T05:17:24;100710.75;;;6.85;100.00
59110;BME280;44895;47.438;18.978;2023-01-06T05:20:27;100708.94;;;6.91;100.00
59110;BME280;44895;47.438;18.978;2023-01-06T05:23:31;100713.44;;;6.85;100.00
59110;BME280;44895;47.438;18.978;2023-01-06T05:26:34;100711.72;;;7.01;100.00
59110;BME280;44895;47.438;18.978;2023-01-06T05:29:38;100721.72;;;7.00;100.00
59110;BME280;44895;47.438;18.978;2023-01-06T05:32:42;100729.06;;;7.05;100.00
59110;BME280;44895;47.438;18.978;2023-01-06T05:35:45;100724.13;;;6.97;100.00
59110;BME280;44895;47.438;18.978;2023-01-06T05:38:51;100725.56;;;6.82;100.00
59110;BME280;44895;47.438;18.978;2023-01-06T05:41:55;100738.53;;;6.80;100.00
59110;BME280;44895;47.438;18.978;2023-01-06T05:44:59;100752.97;;;6.69;100.00
59110;BME280;44895;47.438;18.978;2023-01-06T05:48:03;100761.13;;;6.74;100.00
59110;BME280;44895;47.438;18.978;2023-01-06T05:51:10;100768.50;;;6.84;100.00
59110;BME280;44895;47.438;18.978;2023-01-06T05:54:13;100773.47;;;6.70;100.00
59110;BME280;44895;47.438;18.978;2023-01-06T05:57:17;100770.09;;;6.80;100.00
59110;BME280;44895;47.438;18.978;2023-01-06T06:00:21;100775.59;;;6.90;100.00
59110;BME280;44895;47.438;18.978;2023-01-06T06:03:24;100778.13;;;6.97;100.00
59110;BME280;44895;47.438;18.978;2023-01-06T06:06:28;100758.75;;;6.78;100.00
59110;BME280;44895;47.438;18.978;2023-01-06T06:09:33;100770.03;;;6.52;100.00
59110;BME280;44895;47.438;18.978;2023-01-06T06:12:37;100760.75;;;6.65;100.00
59110;BME280;44895;47.438;18.978;2023-01-06T06:15:41;100766.88;;;6.61;100.00
59110;BME280;44895;47.438;18.978;2023-01-06T06:18:48;100775.03;;;6.44;100.00
59110;BME280;44895;47.438;18.978;2023-01-06T06:21:52;100764.25;;;6.44;100.00
59110;BME280;44895;47.438;18.978;2023-01-06T06:24:56;100775.97;;;6.55;100.00
59110;BME280;44895;47.438;18.978;2023-01-06T06:28:00;100778.97;;;6.36;100.00
59110;BME280;44895;47.438;18.978;2023-01-06T06:31:13;100786.06;;;6.42;100.00
59110;BME280;44895;47.438;18.978;2023-01-06T06:34:17;100791.56;;;6.47;100.00
59110;BME280;44895;47.438;18.978;2023-01-06T06:37:21;100794.25;;;6.47;100.00
59110;BME280;44895;47.438;18.978;2023-01-06T06:40:25;100801.84;;;6.50;100.00
59110;BME280;44895;47.438;18.978;2023-01-06T06:43:31;100808.88;;;6.51;100.00
59110;BME280;44895;47.438;18.978;2023-01-06T06:46:35;100804.13;;;6.59;100.00
59110;BME280;44895;47.438;18.978;2023-01-06T06:49:39;100806.66;;;6.48;100.00
59110;BME280;44895;47.438;18.978;2023-01-06T06:52:43;100807.31;;;6.56;100.00
59110;BME280;44895;47.438;18.978;2023-01-06T06:55:47;100807.63;;;6.59;100.00
59110;BME280;44895;47.438;18.978;2023-01-06T06:58:50;100808.66;;;6.36;100.00
59110;BME280;44895;47.438;18.978;2023-01-06T07:01:54;100807.75;;;6.47;100.00
59110;BME280;44895;47.438;18.978;2023-01-06T07:04:58;100819.69;;;6.34;100.00
59110;BME280;44895;47.438;18.978;2023-01-06T07:08:02;100810.78;;;6.34;100.00
59110;BME280;44895;47.438;18.978;2023-01-06T07:11:06;100829.28;;;6.64;100.00
59110;BME280;44895;47.438;18.978;2023-01-06T07:14:09;100830.25;;;6.75;100.00
59110;BME280;44895;47.438;18.978;2023-01-06T07:17:13;100839.91;;;6.71;100.00
59110;BME280;44895;47.438;18.978;2023-01-06T07:20:17;100843.19;;;6.56;100.00
59110;BME280;44895;47.438;18.978;2023-01-06T07:23:22;100849.00;;;6.65;100.00
59110;BME280;44895;47.438;18.978;2023-01-06T07:26:25;100850.28;;;6.79;100.00
59110;BME280;44895;47.438;18.978;2023-01-06T07:29:29;100838.59;;;7.40;100.00
59110;BME280;44895;47.438;18.978;2023-01-06T07:32:33;100840.47;;;7.67;100.00
59110;BME280;44895;47.438;18.978;2023-01-06T07:35:37;100834.75;;;7.91;100.00
59110;BME280;44895;47.438;18.978;2023-01-06T07:38:40;100823.91;;;8.23;100.00
59110;BME280;44895;47.438;18.978;2023-01-06T07:41:44;100844.47;;;7.59;100.00
59110;BME280;44895;47.438;18.978;2023-01-06T07:44:48;100840.03;;;7.26;100.00
59110;BME280;44895;47.438;18.978;2023-01-06T07:47:54;100849.72;;;7.22;100.00
59110;BME280;44895;47.438;18.978;2023-01-06T07:50:58;100841.81;;;6.93;100.00
59110;BME280;44895;47.438;18.978;2023-01-06T07:54:01;100851.00;;;6.92;100.00
59110;BME280;44895;47.438;18.978;2023-01-06T07:57:05;100833.69;;;6.93;100.00
59110;BME280;44895;47.438;18.978;2023-01-06T08:00:09;100839.28;;;6.86;100.00
59110;BME280;44895;47.438;18.978;2023-01-06T08:03:16;100850.81;;;6.98;100.00
59110;BME280;44895;47.438;18.978;2023-01-06T08:06:20;100835.28;;;7.93;100.00
59110;BME280;44895;47.438;18.978;2023-01-06T08:09:24;100828.13;;;8.09;100.00
59110;BME280;44895;47.438;18.978;2023-01-06T08:12:27;100822.06;;;8.67;100.00
59110;BME280;44895;47.438;18.978;2023-01-06T08:15:31;100821.19;;;9.29;100.00
59110;BME280;44895;47.438;18.978;2023-01-06T08:18:35;100809.59;;;9.50;100.00
59110;BME280;44895;47.438;18.978;2023-01-06T08:21:38;100797.97;;;9.80;100.00
59110;BME280;44895;47.438;18.978;2023-01-06T08:24:42;100787.38;;;10.04;100.00
59110;BME280;44895;47.438;18.978;2023-01-06T08:27:46;100774.66;;;9.89;100.00
59110;BME280;44895;47.438;18.978;2023-01-06T08:30:50;100779.22;;;10.20;100.00
59110;BME280;44895;47.438;18.978;2023-01-06T08:33:54;100777.88;;;9.86;100.00
59110;BME280;44895;47.438;18.978;2023-01-06T08:36:57;100782.47;;;10.22;100.00
59110;BME280;44895;47.438;18.978;2023-01-06T08:40:02;100788.44;;;10.24;100.00
59110;BME280;44895;47.438;18.978;2023-01-06T08:43:06;100779.69;;;10.68;100.00
59110;BME280;44895;47.438;18.978;2023-01-06T08:46:12;100775.31;;;10.67;100.00
59110;BME280;44895;47.438;18.978;2023-01-06T08:49:15;100773.88;;;10.90;100.00
59110;BME280;44895;47.438;18.978;2023-01-06T08:52:19;100784.59;;;10.56;100.00
59110;BME280;44895;47.438;18.978;2023-01-06T08:55:23;100795.00;;;10.02;100.00
59110;BME280;44895;47.438;18.978;2023-01-06T08:58:26;100810.72;;;9.69;100.00
59110;BME280;44895;47.438;18.978;2023-01-06T09:01:33;100809.88;;;9.48;100.00
59110;BME280;44895;47.438;18.978;2023-01-06T09:04:37;100823.16;;;9.50;100.00
59110;BME280;44895;47.438;18.978;2023-01-06T09:07:41;100825.84;;;9.39;100.00
59110;BME280;44895;47.438;18.978;2023-01-06T09:10:45;100839.69;;;9.48;100.00
59110;BME280;44895;47.438;18.978;2023-01-06T09:13:49;100840.19;;;9.29;100.00
59110;BME280;44895;47.438;18.978;2023-01-06T09:16:53;100836.44;;;9.51;100.00
59110;BME280;44895;47.438;18.978;2023-01-06T09:19:57;100835.06;;;9.43;100.00
59110;BME280;44895;47.438;18.978;2023-01-06T09:23:01;100838.03;;;9.37;100.00
59110;BME280;44895;47.438;18.978;2023-01-06T09:26:05;100844.03;;;9.39;100.00
59110;BME280;44895;47.438;18.978;2023-01-06T09:29:09;100843.75;;;9.40;100.00
59110;BME280;44895;47.438;18.978;2023-01-06T09:32:13;100835.34;;;9.42;100.00
59110;BME280;44895;47.438;18.978;2023-01-06T09:35:16;100841.22;;;9.18;100.00
59110;BME280;44895;47.438;18.978;2023-01-06T09:38:20;100846.41;;;9.25;100.00
59110;BME280;44895;47.438;18.978;2023-01-06T09:47:48;100845.34;;;9.31;100.00
59110;BME280;44895;47.438;18.978;2023-01-06T09:51:00;100845.50;;;8.98;100.00
59110;BME280;44895;47.438;18.978;2023-01-06T09:54:22;100849.09;;;9.14;100.00
59110;BME280;44895;47.438;18.978;2023-01-06T09:57:32;100842.66;;;9.31;100.00
59110;BME280;44895;47.438;18.978;2023-01-06T10:00:38;100845.78;;;9.02;100.00
59110;BME280;44895;47.438;18.978;2023-01-06T10:03:46;100834.94;;;9.02;100.00
59110;BME280;44895;47.438;18.978;2023-01-06T10:13:26;100846.56;;;8.97;100.00
59110;BME280;44895;47.438;18.978;2023-01-06T10:20:05;100837.38;;;9.04;100.00
59110;BME280;44895;47.438;18.978;2023-01-06T10:23:14;100843.06;;;8.97;100.00
59110;BME280;44895;47.438;18.978;2023-01-06T10:26:31;100829.84;;;9.16;100.00
59110;BME280;44895;47.438;18.978;2023-01-06T10:29:41;100832.63;;;9.37;100.00
59110;BME280;44895;47.438;18.978;2023-01-06T10:32:47;100826.66;;;9.40;100.00
59110;BME280;44895;47.438;18.978;2023-01-06T10:35:54;100818.75;;;9.18;100.00
59110;BME280;44895;47.438;18.978;2023-01-06T10:39:00;100826.13;;;9.43;100.00
59110;BME280;44895;47.438;18.978;2023-01-06T10:42:37;100820.41;;;9.29;100.00
59110;BME280;44895;47.438;18.978;2023-01-06T10:46:03;100826.09;;;9.22;100.00
59110;BME280;44895;47.438;18.978;2023-01-06T10:49:17;100823.72;;;9.72;100.00
59110;BME280;44895;47.438;18.978;2023-01-06T10:52:21;100832.66;;;9.62;100.00
59110;BME280;44895;47.438;18.978;2023-01-06T10:58:48;100826.13;;;9.48;100.00
59110;BME280;44895;47.438;18.978;2023-01-06T11:01:56;100824.28;;;9.64;100.00
59110;BME280;44895;47.438;18.978;2023-01-06T11:05:00;100820.22;;;10.03;100.00
59110;BME280;44895;47.438;18.978;2023-01-06T11:08:06;100818.88;;;10.00;100.00
59110;BME280;44895;47.438;18.978;2023-01-06T11:11:15;100818.31;;;9.93;100.00
59110;BME280;44895;47.438;18.978;2023-01-06T11:14:22;100816.16;;;9.85;100.00
59110;BME280;44895;47.438;18.978;2023-01-06T11:17:28;100818.03;;;9.84;100.00
59110;BME280;44895;47.438;18.978;2023-01-06T11:20:33;100809.09;;;9.73;100.00
59110;BME280;44895;47.438;18.978;2023-01-06T11:23:39;100804.19;;;9.70;100.00
59110;BME280;44895;47.438;18.978;2023-01-06T11:26:49;100809.88;;;9.74;100.00
59110;BME280;44895;47.438;18.978;2023-01-06T11:29:53;100803.13;;;10.07;100.00
59110;BME280;44895;47.438;18.978;2023-01-06T11:32:57;100799.88;;;9.90;100.00
59110;BME280;44895;47.438;18.978;2023-01-06T11:36:09;100799.34;;;10.03;100.00
59110;BME280;44895;47.438;18.978;2023-01-06T11:42:26;100789.56;;;10.02;100.00
59110;BME280;44895;47.438;18.978;2023-01-06T11:45:34;100790.91;;;10.10;100.00
59110;BME280;44895;47.438;18.978;2023-01-06T11:48:57;100795.00;;;9.97;100.00
59110;BME280;44895;47.438;18.978;2023-01-06T11:52:05;100790.34;;;10.23;100.00
59110;BME280;44895;47.438;18.978;2023-01-06T11:58:19;100792.50;;;10.32;100.00
59110;BME280;44895;47.438;18.978;2023-01-06T12:04:49;100775.41;;;10.31;100.00
59110;BME280;44895;47.438;18.978;2023-01-06T12:07:56;100762.66;;;10.37;100.00
59110;BME280;44895;47.438;18.978;2023-01-06T12:11:13;100764.56;;;10.41;100.00
59110;BME280;44895;47.438;18.978;2023-01-06T12:14:21;100761.78;;;10.57;100.00
59110;BME280;44895;47.438;18.978;2023-01-06T12:17:41;100767.53;;;10.29;100.00
59110;BME280;44895;47.438;18.978;2023-01-06T12:20:49;100748.78;;;10.33;100.00
59110;BME280;44895;47.438;18.978;2023-01-06T12:23:55;100744.69;;;10.51;100.00
59110;BME280;44895;47.438;18.978;2023-01-06T12:27:02;100743.06;;;10.50;100.00
59110;BME280;44895;47.438;18.978;2023-01-06T12:30:14;100746.56;;;10.61;100.00
59110;BME280;44895;47.438;18.978;2023-01-06T12:40:15;100727.88;;;10.49;100.00
59110;BME280;44895;47.438;18.978;2023-01-06T12:43:27;100723.16;;;10.75;100.00
59110;BME280;44895;47.438;18.978;2023-01-06T12:46:38;100719.28;;;10.82;100.00
59110;BME280;44895;47.438;18.978;2023-01-06T12:53:02;100719.06;;;10.78;100.00
59110;BME280;44895;47.438;18.978;2023-01-06T12:56:36;100711.97;;;10.82;100.00
59110;BME280;44895;47.438;18.978;2023-01-06T13:19:54;100717.88;;;10.19;100.00
59110;BME280;44895;47.438;18.978;2023-01-06T13:26:57;100734.72;;;10.00;100.00
59110;BME280;44895;47.438;18.978;2023-01-06T13:40:35;100720.00;;;10.27;100.00
59110;BME280;44895;47.438;18.978;2023-01-06T13:43:42;100726.56;;;10.36;100.00
59110;BME280;44895;47.438;18.978;2023-01-06T13:46:49;100726.28;;;10.27;100.00
59110;BME280;44895;47.438;18.978;2023-01-06T13:49:56;100721.94;;;10.21;100.00
59110;BME280;44895;47.438;18.978;2023-01-06T13:53:00;100717.03;;;10.23;100.00
59110;BME280;44895;47.438;18.978;2023-01-06T13:56:26;100722.50;;;10.08;100.00
59110;BME280;44895;47.438;18.978;2023-01-06T13:59:49;100713.56;;;10.02;100.00
59110;BME280;44895;47.438;18.978;2023-01-06T14:03:01;100714.91;;;10.10;100.00
59110;BME280;44895;47.438;18.978;2023-01-06T14:09:25;100715.78;;;9.59;100.00
59110;BME280;44895;47.438;18.978;2023-01-06T14:12:33;100726.09;;;9.52;100.00
59110;BME280;44895;47.438;18.978;2023-01-06T14:15:38;100717.41;;;9.60;100.00
59110;BME280;44895;47.438;18.978;2023-01-06T14:19:06;100704.91;;;9.38;100.00
59110;BME280;44895;47.438;18.978;2023-01-06T14:22:16;100711.66;;;9.05;100.00
59110;BME280;44895;47.438;18.978;2023-01-06T14:25:22;100725.44;;;8.98;100.00
59110;BME280;44895;47.438;18.978;2023-01-06T14:28:29;100727.03;;;8.84;100.00
59110;BME280;44895;47.438;18.978;2023-01-06T14:31:37;100726.75;;;8.75;100.00
59110;BME280;44895;47.438;18.978;2023-01-06T14:34:57;100722.63;;;8.62;100.00
59110;BME280;44895;47.438;18.978;2023-01-06T14:38:04;100718.53;;;8.49;100.00
59110;BME280;44895;47.438;18.978;2023-01-06T14:44:32;100726.38;;;8.08;100.00
59110;BME280;44895;47.438;18.978;2023-01-06T14:47:44;100731.13;;;7.90;100.00
59110;BME280;44895;47.438;18.978;2023-01-06T14:50:52;100733.19;;;7.73;100.00
59110;BME280;44895;47.438;18.978;2023-01-06T14:54:02;100726.91;;;7.67;100.00
59110;BME280;44895;47.438;18.978;2023-01-06T14:57:23;100726.22;;;7.49;100.00
59110;BME280;44895;47.438;18.978;2023-01-06T15:00:28;100726.84;;;7.29;100.00
59110;BME280;44895;47.438;18.978;2023-01-06T15:03:33;100727.28;;;7.16;100.00
59110;BME280;44895;47.438;18.978;2023-01-06T15:06:37;100731.63;;;7.17;100.00
59110;BME280;44895;47.438;18.978;2023-01-06T15:09:41;100729.00;;;7.00;100.00
59110;BME280;44895;47.438;18.978;2023-01-06T15:12:50;100730.13;;;7.04;100.00
59110;BME280;44895;47.438;18.978;2023-01-06T15:19:06;100728.97;;;7.22;100.00
59110;BME280;44895;47.438;18.978;2023-01-06T15:22:16;100736.00;;;6.96;100.00
59110;BME280;44895;47.438;18.978;2023-01-06T15:25:23;100729.91;;;6.83;100.00
59110;BME280;44895;47.438;18.978;2023-01-06T15:28:33;100732.06;;;6.59;100.00
59110;BME280;44895;47.438;18.978;2023-01-06T15:31:38;100735.94;;;6.46;100.00
59110;BME280;44895;47.438;18.978;2023-01-06T15:34:42;100730.81;;;6.28;100.00
59110;BME280;44895;47.438;18.978;2023-01-06T15:37:57;100732.59;;;6.00;100.00
59110;BME280;44895;47.438;18.978;2023-01-06T15:41:01;100732.81;;;6.15;100.00
59110;BME280;44895;47.438;18.978;2023-01-06T15:44:39;100730.03;;;6.27;100.00
59110;BME280;44895;47.438;18.978;2023-01-06T15:47:44;100730.63;;;6.12;100.00
59110;BME280;44895;47.438;18.978;2023-01-06T15:50:49;100729.91;;;6.00;100.00
59110;BME280;44895;47.438;18.978;2023-01-06T15:53:56;100731.59;;;6.06;100.00
59110;BME280;44895;47.438;18.978;2023-01-06T15:57:01;100731.88;;;6.04;100.00
59110;BME280;44895;47.438;18.978;2023-01-06T16:00:17;100739.88;;;5.99;100.00
59110;BME280;44895;47.438;18.978;2023-01-06T16:03:24;100745.06;;;5.72;100.00
59110;BME280;44895;47.438;18.978;2023-01-06T16:06:31;100741.06;;;5.41;100.00
59110;BME280;44895;47.438;18.978;2023-01-06T16:09:35;100755.09;;;5.60;100.00
59110;BME280;44895;47.438;18.978;2023-01-06T16:12:39;100752.47;;;5.31;100.00
59110;BME280;44895;47.438;18.978;2023-01-06T16:15:49;100748.41;;;5.45;100.00
59110;BME280;44895;47.438;18.978;2023-01-06T16:18:53;100746.13;;;5.08;100.00
59110;BME280;44895;47.438;18.978;2023-01-06T16:22:03;100750.94;;;5.35;100.00
59110;BME280;44895;47.438;18.978;2023-01-06T16:25:25;100747.75;;;5.38;100.00
59110;BME280;44895;47.438;18.978;2023-01-06T16:28:29;100748.41;;;5.28;100.00
59110;BME280;44895;47.438;18.978;2023-01-06T16:31:35;100752.38;;;5.26;100.00
59110;BME280;44895;47.438;18.978;2023-01-06T16:34:48;100756.66;;;4.81;100.00
59110;BME280;44895;47.438;18.978;2023-01-06T16:37:53;100753.84;;;4.76;100.00
59110;BME280;44895;47.438;18.978;2023-01-06T16:40:57;100758.56;;;4.97;100.00
59110;BME280;44895;47.438;18.978;2023-01-06T16:44:01;100763.63;;;4.94;100.00
59110;BME280;44895;47.438;18.978;2023-01-06T16:47:07;100763.91;;;5.09;100.00
59110;BME280;44895;47.438;18.978;2023-01-06T16:53:22;100754.94;;;5.03;100.00
59110;BME280;44895;47.438;18.978;2023-01-06T16:56:25;100752.84;;;4.94;100.00
59110;BME280;44895;47.438;18.978;2023-01-06T16:59:34;100746.69;;;5.10;100.00
59110;BME280;44895;47.438;18.978;2023-01-06T17:02:38;100751.31;;;4.98;100.00
59110;BME280;44895;47.438;18.978;2023-01-06T17:05:43;100761.19;;;4.92;100.00
59110;BME280;44895;47.438;18.978;2023-01-06T17:08:47;100750.66;;;4.90;100.00
59110;BME280;44895;47.438;18.978;2023-01-06T17:11:51;100743.44;;;5.08;100.00
59110;BME280;44895;47.438;18.978;2023-01-06T17:14:56;100734.00;;;4.94;100.00
59110;BME280;44895;47.438;18.978;2023-01-06T17:18:00;100736.09;;;5.20;100.00
59110;BME280;44895;47.438;18.978;2023-01-06T17:21:14;100741.53;;;5.37;100.00
59110;BME280;44895;47.438;18.978;2023-01-06T17:24:24;100741.31;;;5.10;100.00
59110;BME280;44895;47.438;18.978;2023-01-06T17:27:29;100751.31;;;5.27;100.00
59110;BME280;44895;47.438;18.978;2023-01-06T17:30:32;100749.22;;;5.46;100.00
59110;BME280;44895;47.438;18.978;2023-01-06T17:33:36;100761.16;;;5.50;100.00
59110;BME280;44895;47.438;18.978;2023-01-06T17:36:42;100756.41;;;5.40;100.00
59110;BME280;44895;47.438;18.978;2023-01-06T17:39:46;100763.91;;;5.38;100.00
59110;BME280;44895;47.438;18.978;2023-01-06T17:43:02;100758.69;;;5.48;100.00
59110;BME280;44895;47.438;18.978;2023-01-06T17:46:41;100766.97;;;5.59;100.00
59110;BME280;44895;47.438;18.978;2023-01-06T17:49:54;100769.50;;;5.65;100.00
59110;BME280;44895;47.438;18.978;2023-01-06T17:53:17;100756.09;;;5.70;100.00
59110;BME280;44895;47.438;18.978;2023-01-06T17:56:39;100763.28;;;5.65;100.00
59110;BME280;44895;47.438;18.978;2023-01-06T17:59:43;100760.16;;;5.56;100.00
59110;BME280;44895;47.438;18.978;2023-01-06T18:02:52;100775.06;;;5.59;100.00
59110;BME280;44895;47.438;18.978;2023-01-06T18:06:25;100775.63;;;5.32;100.00
59110;BME280;44895;47.438;18.978;2023-01-06T18:09:29;100781.25;;;5.13;100.00
59110;BME280;44895;47.438;18.978;2023-01-06T18:12:33;100780.31;;;5.07;100.00
59110;BME280;44895;47.438;18.978;2023-01-06T18:15:36;100777.38;;;5.09;100.00